Tandag, Philippines
Current Conditions -  °F | °C
As of 10:00 PM on Tuesday 21 Oct 2014 (Local Time) from RPMD Reporting Station
Thunderstorm Thunderstorm  
Wind Chill: 81°   Ceiling: 9000
Heat Index: 86°   Visibility: 3mi
Dew Point: 75°   Wind: 5mph
Humidity: 84%   Direction: 360°N
Pressure: 29.91"   Gusts: NA
Location:  9.08°N, 126.2°E
Report Text: RPMD 211400Z 36004KT 5000 -TS SCT015CB BKN090 OVC290 27/24 Q1013 RMK A2991 OCCNL LGTNG NNW W AND OVHD
Loading
Personal Weather Stations






























Interactive Weather Map
Tropical Storm Tracking
New forecast layout! Learn more

10-Day Weather Forecast

Advertisements
Track Severe Weather on mobile